createdAt,value
2018-05-08T00:01:19.319Z,48.00
2018-05-08T00:03:46.897Z,47.90
2018-05-08T00:06:14.451Z,47.50
2018-05-08T00:08:42.339Z,47.10
2018-05-08T00:11:10.645Z,46.60
2018-05-08T00:13:38.174Z,46.60
2018-05-08T00:16:06.505Z,46.30
2018-05-08T00:18:34.046Z,46.20
2018-05-08T00:21:01.748Z,46.10
2018-05-08T00:23:29.299Z,46.00
2018-05-08T00:25:56.848Z,46.10
2018-05-08T00:28:24.433Z,46.10
2018-05-08T00:30:51.978Z,46.10
2018-05-08T00:33:19.545Z,46.20
2018-05-08T00:35:47.101Z,46.20
2018-05-08T00:38:14.973Z,46.10
2018-05-08T00:40:42.513Z,45.80
2018-05-08T00:43:10.059Z,45.80
2018-05-08T00:45:37.644Z,45.70
2018-05-08T00:48:09.633Z,46.00
2018-05-08T00:50:37.253Z,46.20
2018-05-08T00:53:04.785Z,46.40
2018-05-08T00:55:32.359Z,46.20
2018-05-08T00:57:59.912Z,46.30
2018-05-08T01:00:27.490Z,46.50
2018-05-08T01:02:55.029Z,46.50
2018-05-08T01:05:22.626Z,46.60
2018-05-08T01:07:50.207Z,46.70
2018-05-08T01:10:17.756Z,46.60
2018-05-08T01:12:45.366Z,46.70
2018-05-08T01:15:12.925Z,46.50
2018-05-08T01:17:40.485Z,46.50
2018-05-08T01:20:08.697Z,46.50
2018-05-08T01:22:36.273Z,46.30
2018-05-08T01:25:03.832Z,46.50
2018-05-08T01:27:31.372Z,46.40
2018-05-08T01:29:58.931Z,46.70
2018-05-08T01:32:26.473Z,47.20
2018-05-08T01:34:54.054Z,47.00
2018-05-08T01:37:21.606Z,47.60
2018-05-08T01:39:49.172Z,47.60
2018-05-08T01:42:16.736Z,47.90
2018-05-08T01:44:44.307Z,48.10
2018-05-08T01:47:11.847Z,48.40
2018-05-08T01:49:39.416Z,48.50
2018-05-08T01:52:06.979Z,48.60
2018-05-08T01:54:34.517Z,48.90
2018-05-08T01:57:02.114Z,48.90
2018-05-08T01:59:29.667Z,49.60
2018-05-08T02:01:57.271Z,49.20
2018-05-08T02:04:24.815Z,49.40
2018-05-08T02:06:53.140Z,49.60
2018-05-08T02:09:20.717Z,49.50
2018-05-08T02:11:48.254Z,49.60
2018-05-08T02:14:15.812Z,49.70
2018-05-08T02:16:43.361Z,49.80
2018-05-08T02:19:10.940Z,50.00
2018-05-08T02:21:38.483Z,50.20
2018-05-08T02:24:06.146Z,50.30
2018-05-08T02:26:33.697Z,51.00
2018-05-08T02:29:01.238Z,50.50
2018-05-08T02:31:29.863Z,50.90
2018-05-08T02:33:57.427Z,50.90
2018-05-08T02:36:25.009Z,51.40
2018-05-08T02:38:52.545Z,51.40
2018-05-08T02:41:20.235Z,51.50
2018-05-08T02:43:47.791Z,51.60
2018-05-08T02:46:15.336Z,52.00
2018-05-08T02:48:42.911Z,52.00
2018-05-08T02:51:10.493Z,52.00
2018-05-08T02:53:39.214Z,52.40
2018-05-08T02:56:06.753Z,52.30
2018-05-08T02:58:34.302Z,52.30
2018-05-08T03:01:02.693Z,52.40
2018-05-08T03:03:30.995Z,52.80
2018-05-08T03:05:58.577Z,52.70
2018-05-08T03:08:26.109Z,52.90
2018-05-08T03:10:53.711Z,53.00
2018-05-08T03:13:21.261Z,52.80
2018-05-08T03:15:48.810Z,53.10
2018-05-08T03:18:16.386Z,53.20
2018-05-08T03:20:43.918Z,53.50
2018-05-08T03:23:11.512Z,53.30
2018-05-08T03:25:39.036Z,53.30
2018-05-08T03:28:06.623Z,53.30
2018-05-08T03:30:34.177Z,53.50
2018-05-08T03:33:01.733Z,53.50
2018-05-08T03:35:29.311Z,53.70
2018-05-08T03:37:56.896Z,53.80
2018-05-08T03:40:24.493Z,53.70
2018-05-08T03:42:52.026Z,53.80
2018-05-08T03:45:19.611Z,53.90
2018-05-08T03:47:47.145Z,53.90
2018-05-08T03:50:15.472Z,53.80
2018-05-08T03:52:43.022Z,53.80
2018-05-08T03:55:10.567Z,53.90
2018-05-08T03:57:38.130Z,53.80
2018-05-08T04:00:05.709Z,54.00
2018-05-08T04:02:44.972Z,54.00
2018-05-08T04:05:24.287Z,53.80
2018-05-08T04:08:03.974Z,53.80
2018-05-08T04:10:32.294Z,54.20
2018-05-08T04:12:59.842Z,54.10
2018-05-08T04:15:27.470Z,53.90
2018-05-08T04:17:55.028Z,53.80
2018-05-08T04:20:22.565Z,53.60
2018-05-08T04:22:50.129Z,53.70
2018-05-08T04:25:17.671Z,53.20
2018-05-08T04:27:45.225Z,53.40
2018-05-08T04:30:12.766Z,53.20
2018-05-08T04:32:40.348Z,53.00
2018-05-08T04:35:07.916Z,53.00
2018-05-08T04:37:35.515Z,53.20
2018-05-08T04:40:03.095Z,53.20
2018-05-08T04:42:30.679Z,53.20
2018-05-08T04:44:58.215Z,53.00
2018-05-08T04:47:26.251Z,52.40
2018-05-08T04:49:53.821Z,52.00
2018-05-08T04:52:21.460Z,51.80
2018-05-08T04:54:49.803Z,52.10
2018-05-08T04:57:17.351Z,52.00
2018-05-08T04:59:44.947Z,52.00
2018-05-08T05:02:12.478Z,51.80
2018-05-08T05:04:40.010Z,51.90
2018-05-08T05:07:07.696Z,51.70
2018-05-08T05:09:35.234Z,51.50
2018-05-08T05:12:02.788Z,51.70
2018-05-08T05:14:30.362Z,51.80
2018-05-08T05:16:57.957Z,51.40
2018-05-08T05:19:25.547Z,51.40
2018-05-08T05:21:53.865Z,51.10
2018-05-08T05:24:21.552Z,51.00
2018-05-08T05:26:49.102Z,50.80
2018-05-08T05:29:16.669Z,50.60
2018-05-08T05:31:45.048Z,50.40
2018-05-08T05:34:12.625Z,50.40
2018-05-08T05:36:40.161Z,50.20
2018-05-08T05:39:07.717Z,50.50
2018-05-08T05:41:35.296Z,50.50
2018-05-08T05:44:02.869Z,49.20
2018-05-08T05:46:30.453Z,49.40
2018-05-08T05:48:58.763Z,48.70
2018-05-08T05:51:26.365Z,48.60
2018-05-08T05:53:53.949Z,48.80
2018-05-08T05:56:22.418Z,48.00
2018-05-08T05:58:50.738Z,47.80
2018-05-08T06:01:18.773Z,47.80
2018-05-08T06:06:50.129Z,46.70
2018-05-08T06:09:18.470Z,46.10
2018-05-08T06:11:46.060Z,46.00
2018-05-08T06:14:13.680Z,46.50
2018-05-08T06:16:41.227Z,45.90
2018-05-08T06:19:08.799Z,45.90
2018-05-08T06:21:36.365Z,46.50
2018-05-08T06:24:03.977Z,45.90
2018-05-08T06:26:51.659Z,44.90
2018-05-08T06:29:19.767Z,44.90
2018-05-08T06:31:47.366Z,44.80
2018-05-08T06:34:14.906Z,43.20
2018-05-08T06:36:43.266Z,41.60
2018-05-08T06:39:10.873Z,41.50
2018-05-08T06:41:38.507Z,42.30
2018-05-08T06:44:06.840Z,42.00
2018-05-08T06:46:34.533Z,42.00
2018-05-08T06:49:02.193Z,42.60
2018-05-08T06:51:29.781Z,42.10
2018-05-08T06:53:57.334Z,42.70
2018-05-08T06:56:25.725Z,42.50
2018-05-08T06:58:53.288Z,42.50
2018-05-08T07:01:20.854Z,41.90
2018-05-08T07:03:49.233Z,42.50
2018-05-08T07:06:16.839Z,43.10
2018-05-08T07:11:37.538Z,42.30
2018-05-08T07:14:05.177Z,42.70
2018-05-08T07:16:32.887Z,42.70
2018-05-08T07:19:00.857Z,43.00
2018-05-08T07:21:28.446Z,42.40
2018-05-08T07:23:56.859Z,42.80
2018-05-08T07:26:24.575Z,42.70
2018-05-08T07:28:52.140Z,43.60
2018-05-08T07:31:19.837Z,43.10
2018-05-08T07:33:47.493Z,43.30
2018-05-08T07:36:15.111Z,43.00
2018-05-08T07:38:42.680Z,42.20
2018-05-08T07:41:10.247Z,41.80
2018-05-08T07:43:38.609Z,41.40
2018-05-08T07:46:06.188Z,41.30
2018-05-08T07:48:34.510Z,41.10
2018-05-08T07:51:02.466Z,41.10
2018-05-08T07:53:30.183Z,41.40
2018-05-08T07:55:57.775Z,40.00
2018-05-08T07:58:26.173Z,39.00
2018-05-08T08:00:53.751Z,39.00
2018-05-08T08:03:21.385Z,38.10
2018-05-08T08:05:49.723Z,37.20
2018-05-08T08:08:17.398Z,37.30
2018-05-08T08:10:45.815Z,34.90
2018-05-08T08:13:15.279Z,34.10
2018-05-08T08:15:42.855Z,34.10
2018-05-08T08:18:10.508Z,32.00
2018-05-08T08:20:38.132Z,31.10
2018-05-08T08:23:05.762Z,30.60
2018-05-08T08:25:34.173Z,29.20
2018-05-08T08:28:01.749Z,29.10
2018-05-08T08:30:29.413Z,29.90
2018-05-08T08:32:57.136Z,30.60
2018-05-08T08:35:24.850Z,32.10
2018-05-08T08:37:52.505Z,33.30
2018-05-08T08:40:20.056Z,33.90
2018-05-08T08:42:48.651Z,33.10
2018-05-08T08:45:16.217Z,33.80
2018-05-08T08:47:44.052Z,33.10
2018-05-08T08:50:11.615Z,33.50
2018-05-08T08:52:40.226Z,34.60
2018-05-08T08:55:07.871Z,34.30
2018-05-08T08:57:35.449Z,33.50
2018-05-08T09:00:03.076Z,33.70
2018-05-08T09:02:30.711Z,34.60
2018-05-08T09:04:58.314Z,35.10
2018-05-08T09:07:25.875Z,35.40
2018-05-08T09:09:53.451Z,35.50
2018-05-08T09:12:21.004Z,35.50
2018-05-08T09:14:48.625Z,35.40
2018-05-08T09:17:16.301Z,34.00
2018-05-08T09:19:43.923Z,33.00
2018-05-08T09:22:12.278Z,30.50
2018-05-08T09:24:40.712Z,31.10
2018-05-08T09:27:08.291Z,31.10
2018-05-08T09:29:35.943Z,31.70
2018-05-08T09:32:04.452Z,31.00
2018-05-08T09:34:32.208Z,31.00
2018-05-08T09:36:59.891Z,31.00
2018-05-08T09:39:27.639Z,31.80
2018-05-08T09:41:55.223Z,30.80
2018-05-08T09:44:23.537Z,27.80
2018-05-08T09:46:51.122Z,27.80
2018-05-08T09:49:18.694Z,26.20
2018-05-08T09:51:46.262Z,25.10
2018-05-08T09:54:13.874Z,24.80
2018-05-08T09:56:41.558Z,24.90
2018-05-08T09:59:09.189Z,24.20
2018-05-08T10:01:37.559Z,23.30
2018-05-08T10:04:05.926Z,23.90
2018-05-08T10:06:35.344Z,23.60
2018-05-08T10:09:03.800Z,23.70
2018-05-08T10:11:31.424Z,23.70
2018-05-08T10:13:59.016Z,23.00
2018-05-08T10:16:26.670Z,22.90
2018-05-08T10:18:55.871Z,22.60
2018-05-08T10:21:23.509Z,22.40
2018-05-08T10:23:51.075Z,22.10
2018-05-08T10:26:18.689Z,21.90
2018-05-08T10:28:46.290Z,22.00
2018-05-08T10:31:13.888Z,22.20
2018-05-08T10:33:42.215Z,21.30
2018-05-08T10:36:09.810Z,21.30
2018-05-08T10:38:37.463Z,20.90
2018-05-08T10:41:05.044Z,20.30
2018-05-08T10:43:32.635Z,20.30
2018-05-08T10:46:00.182Z,19.90
2018-05-08T10:48:28.838Z,19.60
2018-05-08T10:50:56.403Z,19.60
2018-05-08T10:53:23.950Z,19.30
2018-05-08T10:55:51.517Z,18.80
2018-05-08T10:58:19.165Z,19.20
2018-05-08T11:00:46.790Z,19.40
2018-05-08T11:03:14.360Z,20.00
2018-05-08T11:05:41.963Z,19.60
2018-05-08T11:08:09.620Z,19.50
2018-05-08T11:10:37.180Z,19.60
2018-05-08T11:13:04.965Z,21.30
2018-05-08T11:15:33.332Z,24.10
2018-05-08T11:18:01.128Z,24.00
2018-05-08T11:20:28.675Z,25.20
2018-05-08T11:22:57.047Z,26.50
2018-05-08T11:25:25.363Z,26.60
2018-05-08T11:27:53.001Z,26.70
2018-05-08T11:30:21.386Z,26.40
2018-05-08T11:32:48.975Z,26.30
2018-05-08T11:35:16.668Z,27.50
2018-05-08T11:37:44.244Z,27.60
2018-05-08T11:40:11.797Z,28.20
2018-05-08T11:42:39.387Z,28.00
2018-05-08T11:45:07.742Z,28.40
2018-05-08T11:47:35.739Z,28.40
2018-05-08T11:50:04.312Z,27.50
2018-05-08T11:52:32.039Z,27.40
2018-05-08T11:54:59.623Z,27.30
2018-05-08T11:57:27.207Z,27.70
2018-05-08T11:59:55.556Z,27.70
2018-05-08T12:02:23.145Z,27.70
2018-05-08T12:04:51.107Z,27.70
2018-05-08T12:07:19.467Z,27.40
2018-05-08T12:09:47.028Z,27.40
2018-05-08T12:12:14.611Z,27.50
2018-05-08T12:14:42.915Z,27.70
2018-05-08T12:17:10.481Z,27.50
2018-05-08T12:19:38.071Z,28.00
2018-05-08T12:22:05.784Z,27.80
2018-05-08T12:24:34.314Z,28.00
2018-05-08T12:27:02.728Z,28.00
2018-05-08T12:29:31.161Z,27.30
2018-05-08T12:31:58.713Z,27.20
2018-05-08T12:34:26.702Z,27.30
2018-05-08T12:36:54.350Z,27.60
2018-05-08T12:39:21.945Z,27.40
2018-05-08T12:41:49.497Z,27.90
2018-05-08T12:44:17.117Z,27.70
2018-05-08T12:46:44.740Z,27.60
2018-05-08T12:49:13.202Z,27.50
2018-05-08T12:51:40.736Z,27.90
2018-05-08T12:54:08.306Z,27.60
2018-05-08T12:56:35.961Z,27.60
2018-05-08T12:59:03.622Z,27.90
2018-05-08T13:01:31.952Z,27.60
2018-05-08T13:04:00.283Z,28.00
2018-05-08T13:06:28.014Z,28.00
2018-05-08T13:08:55.623Z,27.90
2018-05-08T13:11:23.249Z,27.70
2018-05-08T13:13:50.805Z,28.10
2018-05-08T13:16:18.436Z,28.90
2018-05-08T13:18:46.053Z,28.90
2018-05-08T13:21:14.031Z,28.60
2018-05-08T13:23:41.648Z,26.30
2018-05-08T13:26:09.191Z,25.80
2018-05-08T13:28:37.546Z,26.50
2018-05-08T13:31:05.197Z,26.50
2018-05-08T13:33:33.924Z,26.90
2018-05-08T13:36:01.482Z,26.80
2018-05-08T13:38:29.194Z,27.00
2018-05-08T13:40:56.869Z,27.20
2018-05-08T13:43:24.431Z,27.30
2018-05-08T13:45:52.752Z,27.30
2018-05-08T13:48:21.238Z,26.90
2018-05-08T13:50:48.857Z,26.90
2018-05-08T13:53:16.555Z,27.40
2018-05-08T13:55:44.144Z,27.40
2018-05-08T13:58:12.692Z,27.60
2018-05-08T14:00:40.410Z,27.60
2018-05-08T14:03:08.226Z,27.80
2018-05-08T14:05:35.823Z,27.90
2018-05-08T14:08:03.589Z,28.00
2018-05-08T14:10:31.227Z,28.30
2018-05-08T14:12:58.929Z,28.20
2018-05-08T14:15:26.788Z,28.90
2018-05-08T14:17:54.303Z,28.60
2018-05-08T14:20:22.229Z,28.20
2018-05-08T14:22:49.821Z,27.90
2018-05-08T14:25:18.263Z,28.10
2018-05-08T14:27:45.949Z,28.10
2018-05-08T14:30:14.290Z,28.00
2018-05-08T14:32:41.867Z,28.00
2018-05-08T14:35:09.423Z,27.60
2018-05-08T14:37:37.029Z,27.40
2018-05-08T14:40:04.868Z,27.40
2018-05-08T14:42:33.199Z,27.20
2018-05-08T14:45:01.636Z,27.40
2018-05-08T14:47:31.103Z,27.60
2018-05-08T14:49:58.659Z,27.60
2018-05-08T14:52:26.378Z,27.50
2018-05-08T14:54:53.945Z,28.00
2018-05-08T14:57:21.526Z,28.90
2018-05-08T14:59:49.104Z,28.60
2018-05-08T15:02:17.143Z,28.40
2018-05-08T15:04:44.793Z,28.20
2018-05-08T15:07:12.369Z,28.80
2018-05-08T15:09:40.004Z,28.70
2018-05-08T15:12:08.325Z,28.50
2018-05-08T15:14:35.939Z,28.50
2018-05-08T15:17:04.371Z,28.60
2018-05-08T15:19:31.929Z,28.60
2018-05-08T15:21:59.828Z,28.60
2018-05-08T15:24:27.370Z,28.60
2018-05-08T15:26:55.075Z,28.00
2018-05-08T15:29:23.415Z,28.20
2018-05-08T15:31:51.033Z,28.20
2018-05-08T15:34:18.615Z,27.60
2018-05-08T15:36:46.191Z,28.60
2018-05-08T15:39:13.767Z,29.40
2018-05-08T15:41:42.123Z,29.80
2018-05-08T15:44:09.739Z,29.80
2018-05-08T15:46:38.113Z,30.20
2018-05-08T15:49:05.751Z,30.20
2018-05-08T15:51:33.323Z,30.50
2018-05-08T15:54:00.944Z,29.90
2018-05-08T15:56:28.519Z,30.20
2018-05-08T15:58:56.193Z,30.30
2018-05-08T16:01:23.778Z,30.40
2018-05-08T16:03:52.221Z,31.10
2018-05-08T16:06:19.811Z,31.10
2018-05-08T16:08:47.396Z,31.30
2018-05-08T16:11:14.980Z,31.30
2018-05-08T16:13:43.585Z,32.00
2018-05-08T16:16:11.567Z,32.10
2018-05-08T16:18:40.031Z,32.40
2018-05-08T16:21:08.532Z,32.40
2018-05-08T16:23:36.085Z,32.70
2018-05-08T16:26:03.977Z,32.60
2018-05-08T16:28:31.591Z,32.90
2018-05-08T16:30:59.127Z,33.00
2018-05-08T16:33:26.785Z,33.20
2018-05-08T16:35:54.409Z,33.40
2018-05-08T16:38:23.301Z,33.40
2018-05-08T16:40:50.936Z,33.70
2018-05-08T16:43:18.507Z,33.70
2018-05-08T16:45:46.244Z,34.00
2018-05-08T16:48:15.060Z,34.20
2018-05-08T16:50:42.604Z,33.40
2018-05-08T16:53:10.207Z,33.40
2018-05-08T16:55:37.903Z,33.20
2018-05-08T16:58:05.459Z,33.30
2018-05-08T17:00:33.063Z,33.50
2018-05-08T17:03:00.645Z,33.70
2018-05-08T17:05:28.284Z,34.00
2018-05-08T17:07:55.864Z,34.90
2018-05-08T17:10:23.592Z,34.30
2018-05-08T17:12:51.164Z,34.20
2018-05-08T17:15:18.779Z,34.40
2018-05-08T17:17:47.103Z,34.50
2018-05-08T17:20:14.703Z,34.50
2018-05-08T17:22:42.305Z,34.80
2018-05-08T17:25:09.852Z,35.10
2018-05-08T17:27:37.496Z,34.80
2018-05-08T17:30:05.218Z,35.10
2018-05-08T17:32:32.915Z,35.10
2018-05-08T17:35:00.469Z,35.40
2018-05-08T17:37:28.195Z,36.80
2018-05-08T17:39:55.780Z,37.50
2018-05-08T17:42:23.368Z,38.10
2018-05-08T17:44:51.697Z,38.80
2018-05-08T17:47:19.404Z,38.80
2018-05-08T17:49:47.050Z,38.90
2018-05-08T17:52:14.576Z,39.20
2018-05-08T17:54:42.144Z,39.30
2018-05-08T17:57:09.817Z,39.40
2018-05-08T17:59:37.389Z,39.20
2018-05-08T18:02:05.021Z,39.10
2018-05-08T18:04:33.542Z,39.10
2018-05-08T18:07:01.087Z,38.90
2018-05-08T18:09:28.679Z,38.90
2018-05-08T18:11:57.005Z,38.70
2018-05-08T18:14:24.647Z,38.60
2018-05-08T18:16:52.204Z,39.10
2018-05-08T18:19:19.946Z,39.80
2018-05-08T18:21:48.268Z,41.60
2018-05-08T18:24:15.923Z,41.60
2018-05-08T18:26:43.496Z,42.10
2018-05-08T18:29:11.069Z,42.60
2018-05-08T18:31:38.783Z,42.90
2018-05-08T18:34:06.349Z,43.20
2018-05-08T18:36:34.721Z,43.60
2018-05-08T18:39:03.188Z,43.80
2018-05-08T18:41:30.823Z,43.70
2018-05-08T18:43:58.487Z,43.70
2018-05-08T18:48:53.325Z,44.20
2018-05-08T18:51:20.925Z,44.10
2018-05-08T18:53:48.517Z,44.20
2018-05-08T18:56:16.095Z,44.50
2018-05-08T18:58:43.739Z,44.00
2018-05-08T19:01:11.347Z,44.40
2018-05-08T19:03:39.728Z,44.80
2018-05-08T19:06:07.326Z,44.80
2018-05-08T19:08:34.913Z,44.80
2018-05-08T19:11:08.207Z,45.20
2018-05-08T19:13:35.771Z,45.10
2018-05-08T19:16:06.153Z,45.30
2018-05-08T19:18:39.286Z,45.60
2018-05-08T19:21:06.990Z,45.60
2018-05-08T19:23:35.545Z,45.70
2018-05-08T19:26:03.091Z,45.60
2018-05-08T19:28:36.423Z,45.80
2018-05-08T19:31:04.754Z,46.10
2018-05-08T19:33:32.321Z,46.00
2018-05-08T19:36:05.603Z,46.20
2018-05-08T19:38:33.179Z,46.50
2018-05-08T19:41:00.767Z,46.30
2018-05-08T19:43:29.090Z,46.40
2018-05-08T19:45:56.710Z,46.40
2018-05-08T19:48:25.085Z,46.70
2018-05-08T19:50:52.646Z,46.60
2018-05-08T19:53:21.015Z,46.40
2018-05-08T19:55:49.560Z,46.60
2018-05-08T19:58:17.232Z,46.50
2018-05-08T20:00:44.793Z,46.70
2018-05-08T20:03:12.427Z,46.90
2018-05-08T20:05:39.972Z,47.00
2018-05-08T20:08:08.315Z,47.20
2018-05-08T20:10:35.865Z,47.10
2018-05-08T20:13:03.426Z,46.90
2018-05-08T20:15:30.990Z,47.00
2018-05-08T20:17:58.726Z,47.00
2018-05-08T20:20:26.299Z,47.10
2018-05-08T20:22:53.921Z,47.00
2018-05-08T20:25:21.505Z,47.40
2018-05-08T20:27:49.230Z,47.40
2018-05-08T20:30:17.604Z,47.60
2018-05-08T20:32:45.920Z,47.80
2018-05-08T20:35:13.654Z,47.70
2018-05-08T20:37:41.212Z,47.80
2018-05-08T20:40:09.873Z,47.90
2018-05-08T20:42:38.219Z,47.90
2018-05-08T20:45:05.888Z,47.80
2018-05-08T20:47:33.540Z,47.90
2018-05-08T20:50:01.109Z,48.20
2018-05-08T20:52:28.704Z,48.20
2018-05-08T20:54:56.266Z,48.20
2018-05-08T20:57:23.855Z,48.20
2018-05-08T20:59:51.443Z,48.20
2018-05-08T21:02:19.018Z,48.30
2018-05-08T21:04:46.676Z,48.50
2018-05-08T21:07:16.228Z,48.50
2018-05-08T21:09:43.894Z,48.50
2018-05-08T21:12:12.231Z,48.80
2018-05-08T21:14:39.889Z,48.80
2018-05-08T21:17:07.441Z,48.70
2018-05-08T21:19:34.983Z,48.80
2018-05-08T21:22:03.370Z,48.70
2018-05-08T21:24:30.995Z,48.70
2018-05-08T21:26:59.449Z,49.20
2018-05-08T21:29:32.618Z,49.20
2018-05-08T21:32:00.281Z,49.20
2018-05-08T21:34:27.961Z,49.50
2018-05-08T21:36:55.618Z,49.40
2018-05-08T21:39:23.345Z,49.60
2018-05-08T21:41:50.935Z,49.70
2018-05-08T21:44:18.491Z,50.10
2018-05-08T21:46:46.083Z,50.30
2018-05-08T21:49:13.675Z,50.50
2018-05-08T21:51:41.998Z,50.50
2018-05-08T21:54:09.575Z,50.50
2018-05-08T21:56:37.171Z,50.60
2018-05-08T21:59:04.751Z,50.70
2018-05-08T22:01:32.304Z,50.70
2018-05-08T22:03:59.891Z,50.60
2018-05-08T22:06:27.455Z,50.10
2018-05-08T22:08:55.070Z,50.20
2018-05-08T22:11:23.387Z,50.00
2018-05-08T22:13:51.084Z,50.00
2018-05-08T22:16:18.670Z,50.20
2018-05-08T22:18:47.067Z,50.20
2018-05-08T22:21:14.712Z,50.10
2018-05-08T22:23:43.049Z,50.10
2018-05-08T22:26:10.613Z,50.10
2018-05-08T22:28:38.170Z,50.20
2018-05-08T22:31:05.771Z,50.30
2018-05-08T22:33:34.077Z,50.10
2018-05-08T22:36:01.604Z,50.10
2018-05-08T22:38:29.953Z,49.80
2018-05-08T22:40:57.514Z,49.80
2018-05-08T22:43:25.095Z,50.30
2018-05-08T22:45:53.423Z,50.30
2018-05-08T22:51:14.355Z,50.30
2018-05-08T22:53:48.770Z,50.30
2018-05-08T22:56:16.362Z,50.30
2018-05-08T22:58:43.902Z,50.50
2018-05-08T23:01:11.474Z,50.40
2018-05-08T23:03:39.031Z,50.50
2018-05-08T23:06:06.604Z,50.70
2018-05-08T23:08:34.201Z,50.50
2018-05-08T23:11:01.747Z,50.60
2018-05-08T23:13:30.085Z,50.40
2018-05-08T23:15:57.635Z,50.40
2018-05-08T23:18:25.278Z,50.30
2018-05-08T23:20:52.822Z,50.40
2018-05-08T23:23:20.357Z,50.50
2018-05-08T23:25:49.020Z,50.90
2018-05-08T23:28:16.577Z,50.90
2018-05-08T23:30:44.136Z,50.90
2018-05-08T23:33:11.744Z,51.20
2018-05-08T23:35:39.318Z,51.50
2018-05-08T23:38:06.894Z,51.80
2018-05-08T23:40:34.476Z,51.90
2018-05-08T23:43:02.155Z,52.20
2018-05-08T23:45:29.741Z,52.40
2018-05-08T23:47:57.377Z,52.60
2018-05-08T23:50:24.934Z,52.60
2018-05-08T23:52:52.519Z,53.00
2018-05-08T23:55:20.199Z,53.00
2018-05-08T23:57:47.792Z,53.20
